createdAt,value
2023-01-20T00:01:26.943Z,9.23
2023-01-20T00:03:54.952Z,9.77
2023-01-20T00:06:22.321Z,9.82
2023-01-20T00:08:52.964Z,12.68
2023-01-20T00:11:20.450Z,13.85
2023-01-20T00:13:47.846Z,10.13
2023-01-20T00:16:16.062Z,9.35
2023-01-20T00:18:43.272Z,8.05
2023-01-20T00:21:11.780Z,8.63
2023-01-20T00:23:39.265Z,7.50
2023-01-20T00:26:07.444Z,7.78
2023-01-20T00:28:35.434Z,7.22
2023-01-20T00:31:12.720Z,7.32
2023-01-20T00:33:40.265Z,7.60
2023-01-20T00:36:08.226Z,6.07
2023-01-20T00:38:35.448Z,6.68
2023-01-20T00:41:02.798Z,6.65
2023-01-20T00:43:30.042Z,6.63
2023-01-20T00:46:00.024Z,6.53
2023-01-20T00:48:27.182Z,6.05
2023-01-20T00:50:54.378Z,6.45
2023-01-20T00:53:21.727Z,5.93
2023-01-20T00:55:48.993Z,5.53
2023-01-20T00:58:16.344Z,5.70
2023-01-20T01:00:43.780Z,6.20
2023-01-20T01:03:11.052Z,5.85
2023-01-20T01:05:38.260Z,5.88
2023-01-20T01:08:05.648Z,6.53
2023-01-20T01:10:32.893Z,6.18
2023-01-20T01:13:00.749Z,5.93
2023-01-20T01:15:28.508Z,6.85
2023-01-20T01:17:56.419Z,7.47
2023-01-20T01:20:23.791Z,7.50
2023-01-20T01:22:50.976Z,7.60
2023-01-20T01:25:18.181Z,7.43
2023-01-20T01:27:45.358Z,7.65
2023-01-20T01:30:12.951Z,7.60
2023-01-20T01:32:40.188Z,7.45
2023-01-20T01:35:07.530Z,7.13
2023-01-20T01:37:34.700Z,7.20
2023-01-20T01:40:01.975Z,7.05
2023-01-20T01:42:29.260Z,7.32
2023-01-20T01:45:12.391Z,7.35
2023-01-20T01:50:07.623Z,7.07
2023-01-20T01:52:34.771Z,6.70
2023-01-20T01:55:03.009Z,6.38
2023-01-20T01:57:31.997Z,6.57
2023-01-20T02:00:01.214Z,6.47
2023-01-20T02:02:28.637Z,6.10
2023-01-20T02:04:55.889Z,6.35
2023-01-20T02:07:23.058Z,5.85
2023-01-20T02:09:50.218Z,6.38
2023-01-20T02:12:19.469Z,6.18
2023-01-20T02:14:48.129Z,6.13
2023-01-20T02:17:25.744Z,5.97
2023-01-20T02:20:11.616Z,6.13
2023-01-20T02:22:55.626Z,6.68
2023-01-20T02:25:37.974Z,5.80
2023-01-20T02:28:28.172Z,6.65
2023-01-20T02:31:01.394Z,6.43
2023-01-20T02:36:10.045Z,5.70
2023-01-20T02:38:49.774Z,5.60
2023-01-20T02:41:32.256Z,5.72
2023-01-20T02:44:11.775Z,6.55
2023-01-20T02:46:41.089Z,6.07
2023-01-20T02:49:24.604Z,5.93
2023-01-20T02:54:19.652Z,7.80
2023-01-20T02:56:48.442Z,10.20
2023-01-20T02:59:18.375Z,8.73
2023-01-20T03:01:54.528Z,7.20
2023-01-20T03:04:24.554Z,10.40
2023-01-20T03:06:53.149Z,8.55
2023-01-20T03:09:22.470Z,8.02
2023-01-20T03:11:52.369Z,7.85
2023-01-20T03:14:19.766Z,6.95
2023-01-20T03:16:48.846Z,6.28
2023-01-20T03:19:17.501Z,6.90
2023-01-20T03:21:45.996Z,7.30
2023-01-20T03:24:13.370Z,6.40
2023-01-20T03:26:40.531Z,6.35
2023-01-20T03:29:08.685Z,6.35
2023-01-20T03:31:42.218Z,6.30
2023-01-20T03:34:12.804Z,7.40
2023-01-20T03:36:40.953Z,6.78
2023-01-20T03:39:08.145Z,6.78
2023-01-20T03:41:50.792Z,7.68
2023-01-20T03:44:18.015Z,7.00
2023-01-20T03:46:48.405Z,7.43
2023-01-20T03:49:18.875Z,7.80
2023-01-20T03:51:49.018Z,8.15
2023-01-20T03:54:19.249Z,6.05
2023-01-20T03:56:57.497Z,6.75
2023-01-20T03:59:25.683Z,6.60
2023-01-20T04:01:53.503Z,6.35
2023-01-20T04:04:20.952Z,7.00
2023-01-20T04:06:49.907Z,6.45
2023-01-20T04:09:20.363Z,6.40
2023-01-20T04:11:47.537Z,7.57
2023-01-20T04:14:14.765Z,8.57
2023-01-20T04:16:41.981Z,7.95
2023-01-20T04:19:09.150Z,7.72
2023-01-20T04:21:59.428Z,7.28
2023-01-20T04:24:29.626Z,8.55
2023-01-20T04:26:56.822Z,8.77
2023-01-20T04:29:23.998Z,7.80
2023-01-20T04:31:51.220Z,9.38
2023-01-20T04:34:18.429Z,8.60
2023-01-20T04:36:45.583Z,7.97
2023-01-20T04:39:12.843Z,7.82
2023-01-20T04:41:40.080Z,11.27
2023-01-20T04:44:07.408Z,10.98
2023-01-20T04:46:36.841Z,10.05
2023-01-20T04:49:04.346Z,8.27
2023-01-20T04:51:32.978Z,8.80
2023-01-20T04:54:00.577Z,8.07
2023-01-20T04:56:27.873Z,11.15
2023-01-20T04:58:55.040Z,13.90
2023-01-20T05:01:22.355Z,10.32
2023-01-20T05:03:49.733Z,10.13
2023-01-20T05:06:17.156Z,10.00
2023-01-20T05:08:44.363Z,9.70
2023-01-20T05:11:11.540Z,10.43
2023-01-20T05:13:40.173Z,9.77
2023-01-20T05:16:08.994Z,8.77
2023-01-20T05:18:36.554Z,9.40
2023-01-20T05:21:04.715Z,9.95
2023-01-20T05:23:31.895Z,11.60
2023-01-20T05:25:59.034Z,8.75
2023-01-20T05:28:26.203Z,8.63
2023-01-20T05:30:53.592Z,8.25
2023-01-20T05:33:21.015Z,8.10
2023-01-20T05:35:48.238Z,7.15
2023-01-20T05:38:15.364Z,6.57
2023-01-20T05:40:42.517Z,7.32
2023-01-20T05:43:11.137Z,8.55
2023-01-20T05:45:40.144Z,8.73
2023-01-20T05:48:07.283Z,8.10
2023-01-20T05:50:34.458Z,7.47
2023-01-20T05:53:01.580Z,7.00
2023-01-20T05:55:28.762Z,7.13
2023-01-20T05:57:55.952Z,8.20
2023-01-20T06:00:26.407Z,7.70
2023-01-20T06:02:53.573Z,7.30
2023-01-20T06:05:20.742Z,7.55
2023-01-20T06:07:49.643Z,6.97
2023-01-20T06:10:17.627Z,7.60
2023-01-20T06:12:44.856Z,6.35
2023-01-20T06:15:12.461Z,8.38
2023-01-20T06:17:39.598Z,10.73
2023-01-20T06:20:07.058Z,9.52
2023-01-20T06:22:34.260Z,8.70
2023-01-20T06:25:01.470Z,8.35
2023-01-20T06:27:28.677Z,9.00
2023-01-20T06:29:55.844Z,10.43
2023-01-20T06:32:23.039Z,11.00
2023-01-20T06:34:50.176Z,11.88
2023-01-20T06:37:17.325Z,11.07
2023-01-20T06:39:44.525Z,12.38
2023-01-20T06:42:11.776Z,12.30
2023-01-20T06:44:38.964Z,12.40
2023-01-20T06:47:06.116Z,13.50
2023-01-20T06:49:33.679Z,13.93
2023-01-20T06:52:01.127Z,16.40
2023-01-20T06:54:28.530Z,15.00
2023-01-20T06:56:55.754Z,13.60
2023-01-20T06:59:22.978Z,14.93
2023-01-20T07:01:50.392Z,14.25
2023-01-20T07:04:17.809Z,18.33
2023-01-20T07:06:45.000Z,14.63
2023-01-20T07:09:12.767Z,14.07
2023-01-20T07:11:40.431Z,15.48
2023-01-20T07:14:08.124Z,13.95
2023-01-20T07:16:35.838Z,13.65
2023-01-20T07:19:03.105Z,12.73
2023-01-20T07:21:30.442Z,13.13
2023-01-20T07:24:00.355Z,13.32
2023-01-20T07:26:27.570Z,12.82
2023-01-20T07:28:54.903Z,13.52
2023-01-20T07:31:23.802Z,12.88
2023-01-20T07:33:51.226Z,11.95
2023-01-20T07:36:18.492Z,11.43
2023-01-20T07:38:49.498Z,13.73
2023-01-20T07:41:18.185Z,17.80
2023-01-20T07:43:46.044Z,13.65
2023-01-20T07:46:14.199Z,11.68
2023-01-20T07:48:41.663Z,13.90
2023-01-20T07:51:10.064Z,13.35
2023-01-20T07:53:38.931Z,15.32
2023-01-20T07:56:13.681Z,15.63
2023-01-20T07:58:41.013Z,11.52
2023-01-20T08:01:16.062Z,14.32
2023-01-20T08:03:44.020Z,10.75
2023-01-20T08:06:12.389Z,9.63
2023-01-20T08:08:39.986Z,10.45
2023-01-20T08:11:08.194Z,13.43
2023-01-20T08:13:35.544Z,11.90
2023-01-20T08:16:07.499Z,11.63
2023-01-20T08:18:35.435Z,13.15
2023-01-20T08:21:06.530Z,11.68
2023-01-20T08:23:34.294Z,10.52
2023-01-20T08:26:02.984Z,10.60
2023-01-20T08:28:30.985Z,17.65
2023-01-20T08:31:04.726Z,17.70
2023-01-20T08:33:32.064Z,11.43
2023-01-20T08:36:04.170Z,10.55
2023-01-20T08:38:31.298Z,9.15
2023-01-20T08:40:58.463Z,8.93
2023-01-20T08:43:25.654Z,8.50
2023-01-20T08:45:59.923Z,17.88
2023-01-20T08:48:27.341Z,13.35
2023-01-20T08:50:54.501Z,12.93
2023-01-20T08:53:24.550Z,13.55
2023-01-20T08:55:56.060Z,13.02
2023-01-20T08:58:25.315Z,13.07
2023-01-20T09:00:53.063Z,14.02
2023-01-20T09:03:20.385Z,12.57
2023-01-20T09:05:47.638Z,12.57
2023-01-20T09:08:15.258Z,12.27
2023-01-20T09:10:42.462Z,12.30
2023-01-20T09:13:09.624Z,11.52
2023-01-20T09:15:36.994Z,9.02
2023-01-20T09:18:04.234Z,10.52
2023-01-20T09:20:31.391Z,10.63
2023-01-20T09:23:02.817Z,10.02
2023-01-20T09:25:29.996Z,8.57
2023-01-20T09:28:00.426Z,9.90
2023-01-20T09:30:27.827Z,8.48
2023-01-20T09:32:57.258Z,8.75
2023-01-20T09:35:24.819Z,7.97
2023-01-20T09:38:10.779Z,7.07
2023-01-20T09:41:15.584Z,7.85
2023-01-20T09:43:56.231Z,7.70
2023-01-20T09:46:29.535Z,10.63
2023-01-20T09:52:01.241Z,9.70
2023-01-20T09:54:29.934Z,11.13
2023-01-20T09:57:00.000Z,10.15
2023-01-20T09:59:37.491Z,9.30
2023-01-20T10:02:07.325Z,10.02
2023-01-20T10:04:42.808Z,8.27
2023-01-20T10:07:32.536Z,8.98
2023-01-20T10:10:04.606Z,8.70
2023-01-20T10:12:34.162Z,9.60
2023-01-20T10:15:06.825Z,9.70
2023-01-20T10:17:55.683Z,9.63
2023-01-20T10:20:41.748Z,10.73
2023-01-20T10:23:11.603Z,10.00
2023-01-20T10:25:45.454Z,10.25
2023-01-20T10:28:15.049Z,9.82
2023-01-20T10:30:43.301Z,10.00
2023-01-20T10:33:12.473Z,8.40
2023-01-20T10:35:47.968Z,8.73
2023-01-20T10:38:30.797Z,8.55
2023-01-20T10:41:04.125Z,9.38
2023-01-20T10:46:13.613Z,8.13
2023-01-20T10:48:59.648Z,8.68
2023-01-20T10:51:45.759Z,8.07
2023-01-20T10:54:25.689Z,8.40
2023-01-20T10:56:57.570Z,8.50
2023-01-20T10:59:30.069Z,7.50
2023-01-20T11:02:10.842Z,7.70
2023-01-20T11:04:39.333Z,7.25
2023-01-20T11:07:09.824Z,7.40
2023-01-20T11:09:37.868Z,8.25
2023-01-20T11:12:08.093Z,7.57
2023-01-20T11:14:35.229Z,8.30
2023-01-20T11:17:13.738Z,8.02
2023-01-20T11:19:57.446Z,7.32
2023-01-20T11:24:55.016Z,6.75
2023-01-20T11:27:24.358Z,20.77
2023-01-20T11:30:01.182Z,10.82
2023-01-20T11:32:33.482Z,8.95
2023-01-20T11:35:01.546Z,21.55
2023-01-20T11:37:40.374Z,11.52
2023-01-20T11:40:19.472Z,9.95
2023-01-20T11:42:47.927Z,48.20
2023-01-20T11:45:34.774Z,19.50
2023-01-20T11:48:04.391Z,21.27
2023-01-20T11:50:41.907Z,17.73
2023-01-20T11:53:20.027Z,80.35
2023-01-20T11:56:01.147Z,12.70
2023-01-20T11:58:29.761Z,51.08
2023-01-20T12:01:01.711Z,32.53
2023-01-20T12:03:43.933Z,7.72
2023-01-20T12:06:23.401Z,5.40
2023-01-20T12:08:51.901Z,7.78
2023-01-20T12:11:39.469Z,6.45
2023-01-20T12:14:24.987Z,6.38
2023-01-20T12:17:00.360Z,6.60
2023-01-20T12:19:31.791Z,6.40
2023-01-20T12:22:00.909Z,6.05
2023-01-20T12:24:59.350Z,5.05
2023-01-20T12:27:27.806Z,5.40
2023-01-20T12:29:57.303Z,5.32
2023-01-20T12:32:24.652Z,4.60
2023-01-20T12:34:51.851Z,4.20
2023-01-20T12:37:31.334Z,3.95
2023-01-20T12:39:58.470Z,4.07
2023-01-20T12:42:38.534Z,4.10
2023-01-20T12:45:28.473Z,4.22
2023-01-20T12:48:14.374Z,4.47
2023-01-20T12:50:57.588Z,3.58
2023-01-20T12:53:44.692Z,3.53
2023-01-20T12:56:18.338Z,4.88
2023-01-20T12:58:52.166Z,5.63
2023-01-20T13:01:28.641Z,4.70
2023-01-20T13:04:02.013Z,4.22
2023-01-20T13:06:29.385Z,3.70
2023-01-20T13:09:25.966Z,4.47
2023-01-20T13:12:15.029Z,4.20
2023-01-20T13:14:48.227Z,4.43
2023-01-20T13:17:25.898Z,4.18
2023-01-20T13:19:57.270Z,5.03
2023-01-20T13:22:25.154Z,4.47
2023-01-20T13:24:53.882Z,4.93
2023-01-20T13:27:28.771Z,4.82
2023-01-20T13:29:57.632Z,4.90
2023-01-20T13:32:28.899Z,4.63
2023-01-20T13:34:56.978Z,4.78
2023-01-20T13:37:34.676Z,3.75
2023-01-20T13:40:02.258Z,3.30
2023-01-20T13:42:32.628Z,3.95
2023-01-20T13:45:11.942Z,3.67
2023-01-20T13:47:51.455Z,5.80
2023-01-20T13:50:47.729Z,5.95
2023-01-20T13:53:24.811Z,6.40
2023-01-20T13:56:02.020Z,9.13
2023-01-20T13:58:33.589Z,4.30
2023-01-20T14:01:00.824Z,6.97
2023-01-20T14:03:38.421Z,6.63
2023-01-20T14:06:07.095Z,8.63
2023-01-20T14:08:42.188Z,3.47
2023-01-20T14:11:15.594Z,3.25
2023-01-20T14:16:25.267Z,5.05
2023-01-20T14:18:56.541Z,7.70
2023-01-20T14:21:28.415Z,3.72
2023-01-20T14:23:55.887Z,6.88
2023-01-20T14:26:30.359Z,9.95
2023-01-20T14:29:03.117Z,7.40
2023-01-20T14:31:34.033Z,6.22
2023-01-20T14:34:03.264Z,5.47
2023-01-20T14:36:32.120Z,5.30
2023-01-20T14:39:03.661Z,4.25
2023-01-20T14:41:35.745Z,4.68
2023-01-20T14:44:03.150Z,4.55
2023-01-20T14:46:40.413Z,4.75
2023-01-20T14:49:07.611Z,6.57
2023-01-20T14:51:34.926Z,7.28
2023-01-20T14:54:20.913Z,7.70
2023-01-20T14:56:48.743Z,9.57
2023-01-20T14:59:19.692Z,10.05
2023-01-20T15:01:51.502Z,9.57
2023-01-20T15:04:18.670Z,11.10
2023-01-20T15:06:52.316Z,9.05
2023-01-20T15:09:30.944Z,9.25
2023-01-20T15:12:16.887Z,8.52
2023-01-20T15:14:56.209Z,6.70
2023-01-20T15:17:23.434Z,6.88
2023-01-20T15:19:50.727Z,5.47
2023-01-20T15:22:19.719Z,5.70
2023-01-20T15:24:47.702Z,5.15
2023-01-20T15:27:21.685Z,5.90
2023-01-20T15:30:02.375Z,6.30
2023-01-20T15:32:29.541Z,6.20
2023-01-20T15:34:56.720Z,6.15
2023-01-20T15:37:24.701Z,5.60
2023-01-20T15:39:53.729Z,6.15
2023-01-20T15:42:21.258Z,5.72
2023-01-20T15:44:48.514Z,5.68
2023-01-20T15:47:20.251Z,6.35
2023-01-20T15:49:47.731Z,6.13
2023-01-20T15:52:15.029Z,5.32
2023-01-20T15:54:42.119Z,5.05
2023-01-20T15:57:18.768Z,6.10
2023-01-20T15:59:46.132Z,5.65
2023-01-20T16:02:17.478Z,6.03
2023-01-20T16:04:44.595Z,6.82
2023-01-20T16:07:13.894Z,11.07
2023-01-20T16:09:41.081Z,8.20
2023-01-20T16:12:11.519Z,9.27
2023-01-20T16:14:38.948Z,8.30
2023-01-20T16:17:11.711Z,7.85
2023-01-20T16:19:38.926Z,8.35
2023-01-20T16:22:07.027Z,9.32
2023-01-20T16:24:34.185Z,8.35
2023-01-20T16:27:03.276Z,10.05
2023-01-20T16:29:30.750Z,11.52
2023-01-20T16:31:58.068Z,11.20
2023-01-20T16:34:25.369Z,10.80
2023-01-20T16:36:52.558Z,9.23
2023-01-20T16:39:19.755Z,9.25
2023-01-20T16:41:48.815Z,9.25
2023-01-20T16:44:16.501Z,9.20
2023-01-20T16:46:46.433Z,11.13
2023-01-20T16:49:13.755Z,9.40
2023-01-20T16:51:41.144Z,15.57
2023-01-20T16:54:08.765Z,26.30
2023-01-20T16:56:35.908Z,18.63
2023-01-20T16:59:03.397Z,12.15
2023-01-20T17:01:31.045Z,11.10
2023-01-20T17:04:02.193Z,7.82
2023-01-20T17:06:34.719Z,7.65
2023-01-20T17:09:03.324Z,7.97
2023-01-20T17:11:32.062Z,9.20
2023-01-20T17:13:59.811Z,11.85
2023-01-20T17:16:27.989Z,12.45
2023-01-20T17:18:56.363Z,11.23
2023-01-20T17:21:24.099Z,11.23
2023-01-20T17:23:52.335Z,12.60
2023-01-20T17:26:20.245Z,11.82
2023-01-20T17:28:47.919Z,10.93
2023-01-20T17:31:15.267Z,9.98
2023-01-20T17:33:49.002Z,7.22
2023-01-20T17:36:16.937Z,7.70
2023-01-20T17:38:44.163Z,8.43
2023-01-20T17:41:11.924Z,7.30
2023-01-20T17:43:46.720Z,7.82
2023-01-20T17:46:15.015Z,8.27
2023-01-20T17:48:42.497Z,8.48
2023-01-20T17:51:19.642Z,10.05
2023-01-20T17:53:47.099Z,13.38
2023-01-20T17:56:14.883Z,11.63
2023-01-20T17:58:43.216Z,16.45
2023-01-20T18:01:10.654Z,16.75
2023-01-20T18:03:39.729Z,19.15
2023-01-20T18:06:08.788Z,17.00
2023-01-20T18:08:36.369Z,16.75
2023-01-20T18:11:04.421Z,13.88
2023-01-20T18:13:31.793Z,11.15
2023-01-20T18:16:04.115Z,10.20
2023-01-20T18:18:31.422Z,11.23
2023-01-20T18:21:07.553Z,12.35
2023-01-20T18:23:34.720Z,13.85
2023-01-20T18:26:01.908Z,14.93
2023-01-20T18:28:29.245Z,19.17
2023-01-20T18:31:00.728Z,16.88
2023-01-20T18:33:28.063Z,18.25
2023-01-20T18:35:55.857Z,14.20
2023-01-20T18:38:23.051Z,17.70
2023-01-20T18:40:50.240Z,18.98
2023-01-20T18:43:17.389Z,17.00
2023-01-20T18:45:44.557Z,17.02
2023-01-20T18:48:11.697Z,17.45
2023-01-20T18:50:39.477Z,16.02
2023-01-20T18:53:06.635Z,21.33
2023-01-20T18:55:33.778Z,19.25
2023-01-20T18:58:00.950Z,20.90
2023-01-20T19:00:28.186Z,23.27
2023-01-20T19:02:55.929Z,24.15
2023-01-20T19:05:23.333Z,23.45
2023-01-20T19:07:51.226Z,16.27
2023-01-20T19:10:19.044Z,15.80
2023-01-20T19:12:46.267Z,17.20
2023-01-20T19:15:13.627Z,15.50
2023-01-20T19:17:40.794Z,15.40
2023-01-20T19:20:08.252Z,15.52
2023-01-20T19:22:35.425Z,14.95
2023-01-20T19:25:02.563Z,15.90
2023-01-20T19:27:31.544Z,17.25
2023-01-20T19:29:58.702Z,15.77
2023-01-20T19:32:25.891Z,15.65
2023-01-20T19:34:53.273Z,15.60
2023-01-20T19:37:20.477Z,15.50
2023-01-20T19:39:48.314Z,16.90
2023-01-20T19:42:15.735Z,15.65
2023-01-20T19:44:42.962Z,16.05
2023-01-20T19:47:10.244Z,15.20
2023-01-20T19:49:37.597Z,16.85
2023-01-20T19:52:05.137Z,17.83
2023-01-20T19:54:33.589Z,17.20
2023-01-20T19:57:00.941Z,17.20
2023-01-20T19:59:28.070Z,17.83
2023-01-20T20:01:55.272Z,17.60
2023-01-20T20:04:24.118Z,16.27
2023-01-20T20:06:51.319Z,18.92
2023-01-20T20:09:20.076Z,17.70
2023-01-20T20:11:47.981Z,16.92
2023-01-20T20:14:16.066Z,13.77
2023-01-20T20:16:43.274Z,13.15
2023-01-20T20:19:12.760Z,13.57
2023-01-20T20:21:40.047Z,12.90
2023-01-20T20:24:07.455Z,15.18
2023-01-20T20:26:36.275Z,16.80
2023-01-20T20:29:04.114Z,14.90
2023-01-20T20:31:31.497Z,13.52
2023-01-20T20:33:59.413Z,13.02
2023-01-20T20:36:28.500Z,14.88
2023-01-20T20:38:57.683Z,15.35
2023-01-20T20:41:30.520Z,14.98
2023-01-20T20:43:58.635Z,15.52
2023-01-20T20:46:26.488Z,16.20
2023-01-20T20:49:00.759Z,15.40
2023-01-20T20:51:28.882Z,16.08
2023-01-20T20:53:56.649Z,16.30
2023-01-20T20:56:24.557Z,17.77
2023-01-20T20:59:01.433Z,18.27
2023-01-20T21:01:30.380Z,19.00
2023-01-20T21:03:58.307Z,19.65
2023-01-20T21:06:25.984Z,19.80
2023-01-20T21:08:53.571Z,18.50
2023-01-20T21:11:20.799Z,18.17
2023-01-20T21:13:49.576Z,18.60
2023-01-20T21:16:20.834Z,19.13
2023-01-20T21:18:48.700Z,21.45
2023-01-20T21:21:17.638Z,21.17
2023-01-20T21:23:48.343Z,21.38
2023-01-20T21:26:15.616Z,19.83
2023-01-20T21:28:43.093Z,20.17
2023-01-20T21:31:11.517Z,20.23
2023-01-20T21:33:39.288Z,20.58
2023-01-20T21:36:08.924Z,19.88
2023-01-20T21:38:41.494Z,19.33
2023-01-20T21:41:10.002Z,18.67
2023-01-20T21:43:57.716Z,17.88
2023-01-20T21:46:25.422Z,17.42
2023-01-20T21:49:11.244Z,18.17
2023-01-20T21:51:56.869Z,18.15
2023-01-20T21:54:27.694Z,17.85
2023-01-20T21:56:54.840Z,20.40
2023-01-20T21:59:22.040Z,19.75
2023-01-20T22:01:49.236Z,22.35
2023-01-20T22:04:16.498Z,21.17
2023-01-20T22:06:44.072Z,20.45
2023-01-20T22:09:11.660Z,21.48
2023-01-20T22:11:38.821Z,24.08
2023-01-20T22:14:06.171Z,21.80
2023-01-20T22:16:33.453Z,21.75
2023-01-20T22:19:00.829Z,22.08
2023-01-20T22:21:27.965Z,23.80
2023-01-20T22:23:55.130Z,23.42
2023-01-20T22:26:22.279Z,26.45
2023-01-20T22:28:49.479Z,24.30
2023-01-20T22:31:19.950Z,24.33
2023-01-20T22:33:51.825Z,22.70
2023-01-20T22:36:19.395Z,18.23
2023-01-20T22:38:46.569Z,17.80
2023-01-20T22:41:14.500Z,16.40
2023-01-20T22:43:44.367Z,18.85
2023-01-20T22:46:13.377Z,17.35
2023-01-20T22:48:40.832Z,17.40
2023-01-20T22:51:12.612Z,16.38
2023-01-20T22:53:39.835Z,16.08
2023-01-20T22:56:33.424Z,16.17
2023-01-20T22:59:00.954Z,18.33
2023-01-20T23:01:29.641Z,15.95
2023-01-20T23:03:57.897Z,18.42
2023-01-20T23:06:25.655Z,16.73
2023-01-20T23:08:52.878Z,17.05
2023-01-20T23:11:21.251Z,16.75
2023-01-20T23:13:48.531Z,16.13
2023-01-20T23:16:17.572Z,17.38
2023-01-20T23:18:45.255Z,16.27
2023-01-20T23:21:12.559Z,17.33
2023-01-20T23:23:39.776Z,16.58
2023-01-20T23:26:08.616Z,17.45
2023-01-20T23:28:36.098Z,14.98
2023-01-20T23:31:04.769Z,14.60
2023-01-20T23:33:32.098Z,15.63
2023-01-20T23:36:06.994Z,19.08
2023-01-20T23:38:34.273Z,17.30
2023-01-20T23:41:02.414Z,15.85
2023-01-20T23:43:30.319Z,16.23
2023-01-20T23:45:58.753Z,14.98
2023-01-20T23:48:26.263Z,14.90
2023-01-20T23:50:53.525Z,15.10
2023-01-20T23:53:20.813Z,14.30
2023-01-20T23:55:48.039Z,14.45
2023-01-20T23:58:15.490Z,13.73
